Terminal Aerodrome Forecast
Issued by NWS Twin Cities, MN

Home | Current Version | Previous Version | Graphics & Text | Print | Product List | Glossary On
Versions: 1 2 3 4 5 6 7 8 9 10 11 12 13 14 15 16 17 18 19 20 21 22 23 24
000
FTUS43 KMPX 181100 RRA
TAFEAU
TAF
KEAU 181139Z 1812/1912 VRB03KT 6SM BR BKN008
     FM181700 19007KT 6SM -SHRA BR BKN028
      TEMPO 1820/1824 2SM +TSRA BKN016CB
     FM190200 18004KT 4SM BR OVC030
     FM190600 22003KT 3SM BR OVC010
      TEMPO 1908/1912 1SM BR OVC003=

USA.gov is the U.S. government's official web portal to all federal, state and local government web resources and services.